createdAt,value
2022-09-25T00:02:56.931Z,99886.30
2022-09-25T00:08:00.377Z,99878.85
2022-09-25T00:13:03.783Z,99873.82
2022-09-25T00:18:07.100Z,99871.05
2022-09-25T00:23:10.507Z,99872.23
2022-09-25T00:28:17.670Z,99869.43
2022-09-25T00:33:21.638Z,99869.98
2022-09-25T00:38:24.950Z,99871.60
2022-09-25T00:43:50.886Z,99869.94
2022-09-25T00:49:00.133Z,99866.46
2022-09-25T00:54:06.842Z,99858.27
2022-09-25T00:59:14.742Z,99857.04
2022-09-25T01:04:18.665Z,99857.83
2022-09-25T01:09:22.694Z,99856.72
2022-09-25T01:14:27.232Z,99854.12
2022-09-25T01:19:55.120Z,99848.50
2022-09-25T01:25:17.376Z,99847.00
2022-09-25T01:30:21.710Z,99847.44
2022-09-25T01:35:31.573Z,99841.38
2022-09-25T01:41:06.122Z,99839.90
2022-09-25T01:46:22.999Z,99838.52
2022-09-25T01:51:50.422Z,99837.33
2022-09-25T01:56:59.881Z,99839.37
2022-09-25T02:02:06.334Z,99834.99
2022-09-25T02:07:14.691Z,99833.30
2022-09-25T02:12:26.808Z,99832.77
2022-09-25T02:17:55.415Z,99835.15
2022-09-25T02:23:11.546Z,99831.04
2022-09-25T02:28:14.938Z,99827.48
2022-09-25T02:33:18.351Z,99828.30
2022-09-25T02:38:22.491Z,99822.95
2022-09-25T02:44:03.177Z,99819.04
2022-09-25T02:49:22.963Z,99809.08
2022-09-25T02:54:36.003Z,99809.10
2022-09-25T02:59:46.582Z,99805.87
2022-09-25T03:04:51.635Z,99804.46
2022-09-25T03:09:58.114Z,99804.24
2022-09-25T03:15:01.431Z,99799.59
2022-09-25T03:20:05.568Z,99796.59
2022-09-25T03:25:09.178Z,99796.98
2022-09-25T03:30:13.002Z,99801.34
2022-09-25T03:35:16.216Z,99795.71
2022-09-25T03:40:19.550Z,99788.48
2022-09-25T03:45:23.140Z,99784.08
2022-09-25T03:50:26.347Z,99780.41
2022-09-25T03:55:29.759Z,99778.56
2022-09-25T04:00:33.073Z,99777.94
2022-09-25T04:05:36.492Z,99781.23
2022-09-25T04:10:40.641Z,99785.08
2022-09-25T04:15:44.133Z,99786.31
2022-09-25T04:20:47.547Z,99789.84
2022-09-25T04:25:50.751Z,99783.41
2022-09-25T04:30:53.961Z,99786.66
2022-09-25T04:35:57.272Z,99787.83
2022-09-25T04:41:01.915Z,99790.70
2022-09-25T04:46:07.766Z,99788.68
2022-09-25T04:51:11.195Z,99791.22
2022-09-25T04:56:16.291Z,99786.63
2022-09-25T05:01:21.083Z,99788.46
2022-09-25T05:06:24.512Z,99794.45
2022-09-25T05:11:27.820Z,99790.68
2022-09-25T05:16:31.075Z,99794.73
2022-09-25T05:21:34.542Z,99790.30
2022-09-25T05:26:38.263Z,99793.70
2022-09-25T05:31:42.944Z,99792.95
2022-09-25T05:36:46.218Z,99795.04
2022-09-25T05:41:49.634Z,99792.09
2022-09-25T05:46:52.845Z,99797.84
2022-09-25T05:51:56.045Z,99798.96
2022-09-25T05:56:59.356Z,99801.30
2022-09-25T06:02:02.830Z,99802.73
2022-09-25T06:07:06.389Z,99802.73
2022-09-25T06:12:09.532Z,99805.34
2022-09-25T06:17:12.908Z,99801.58
2022-09-25T06:22:16.222Z,99799.98
2022-09-25T06:27:19.426Z,99803.11
2022-09-25T06:32:23.635Z,99801.94
2022-09-25T06:37:26.765Z,99797.31
2022-09-25T06:42:30.073Z,99794.59
2022-09-25T06:47:33.411Z,99794.86
2022-09-25T06:52:43.666Z,99795.16
2022-09-25T06:57:47.043Z,99793.52
2022-09-25T07:03:08.851Z,99793.91
2022-09-25T07:08:16.570Z,99796.18
2022-09-25T07:13:24.959Z,99795.39
2022-09-25T07:18:29.754Z,99794.95
2022-09-25T07:23:34.112Z,99793.77
2022-09-25T07:28:39.603Z,99802.14
2022-09-25T07:33:43.618Z,99797.50
2022-09-25T07:38:50.850Z,99801.09
2022-09-25T07:49:22.237Z,99809.21
2022-09-25T07:54:26.060Z,99809.13
2022-09-25T07:59:29.469Z,99809.84
2022-09-25T08:04:32.885Z,99812.09
2022-09-25T08:09:36.303Z,99807.34
2022-09-25T08:14:40.019Z,99803.34
2022-09-25T08:19:43.432Z,99801.06
2022-09-25T08:24:46.642Z,99801.61
2022-09-25T08:29:49.967Z,99793.42
2022-09-25T08:34:54.495Z,99790.02
2022-09-25T08:40:01.184Z,99790.95
2022-09-25T08:45:31.728Z,99789.65
2022-09-25T08:50:36.207Z,99787.18
2022-09-25T08:56:00.880Z,99786.84
2022-09-25T09:01:10.522Z,99779.74
2022-09-25T09:06:16.331Z,99776.34
2022-09-25T09:11:36.513Z,99773.80
2022-09-25T09:16:45.865Z,99772.48
2022-09-25T09:22:02.080Z,99773.55
2022-09-25T09:27:11.431Z,99766.02
2022-09-25T09:32:32.868Z,99765.34
2022-09-25T09:38:05.472Z,99762.29
2022-09-25T09:43:17.686Z,99757.84
2022-09-25T09:48:25.403Z,99756.44
2022-09-25T09:53:40.540Z,99754.29
2022-09-25T09:58:51.784Z,99752.67
2022-09-25T10:04:17.625Z,99745.02
2022-09-25T10:09:21.143Z,99740.78
2022-09-25T10:14:30.800Z,99739.70
2022-09-25T10:19:49.366Z,99742.59
2022-09-25T10:25:03.736Z,99735.63
2022-09-25T10:30:16.057Z,99734.84
2022-09-25T10:35:51.420Z,99729.53
2022-09-25T10:41:05.382Z,99726.75
2022-09-25T10:46:13.432Z,99721.04
2022-09-25T10:51:21.619Z,99718.05
2022-09-25T10:56:36.203Z,99716.29
2022-09-25T11:01:43.145Z,99704.46
2022-09-25T11:06:53.270Z,99701.27
2022-09-25T11:12:13.988Z,99696.02
2022-09-25T11:17:54.473Z,99690.08
2022-09-25T11:23:18.977Z,99681.71
2022-09-25T11:28:50.038Z,99676.88
2022-09-25T11:34:12.910Z,99675.15
2022-09-25T11:39:44.174Z,99674.57
2022-09-25T11:45:22.813Z,99673.09
2022-09-25T11:50:43.306Z,99667.47
2022-09-25T11:56:07.629Z,99661.40
2022-09-25T12:01:21.423Z,99654.17
2022-09-25T12:06:55.417Z,99652.36
2022-09-25T12:12:17.386Z,99648.73
2022-09-25T12:17:33.378Z,99645.67
2022-09-25T12:22:52.865Z,99633.65
2022-09-25T12:28:01.816Z,99629.30
2022-09-25T12:33:23.138Z,99628.53
2022-09-25T12:38:44.780Z,99623.94
2022-09-25T12:44:27.269Z,99630.10
2022-09-25T12:49:35.227Z,99626.13
2022-09-25T12:54:55.644Z,99619.78
2022-09-25T13:00:09.605Z,99620.55
2022-09-25T13:05:38.203Z,99612.87
2022-09-25T13:10:52.677Z,99610.89
2022-09-25T13:16:03.231Z,99601.88
2022-09-25T13:21:25.206Z,99590.48
2022-09-25T13:26:30.473Z,99583.52
2022-09-25T13:31:37.378Z,99583.04
2022-09-25T13:36:55.926Z,99578.45
2022-09-25T13:42:04.180Z,99570.66
2022-09-25T13:47:25.599Z,99567.18
2022-09-25T13:52:31.051Z,99563.98
2022-09-25T13:57:59.658Z,99551.79
2022-09-25T14:03:03.955Z,99547.67
2022-09-25T14:08:09.347Z,99545.99
2022-09-25T14:13:17.165Z,99542.81
2022-09-25T14:18:25.592Z,99542.84
2022-09-25T14:23:33.586Z,99535.24
2022-09-25T14:28:47.987Z,99538.23
2022-09-25T14:34:30.105Z,99537.23
2022-09-25T14:39:42.426Z,99534.37
2022-09-25T14:45:04.477Z,99534.39
2022-09-25T14:50:22.532Z,99531.48
2022-09-25T14:55:29.427Z,99527.96
2022-09-25T15:00:32.843Z,99526.15
2022-09-25T15:05:37.811Z,99521.69
2022-09-25T15:10:41.512Z,99518.23
2022-09-25T15:16:13.043Z,99518.34
2022-09-25T15:21:31.694Z,99512.94
2022-09-25T15:26:41.518Z,99511.19
2022-09-25T15:31:51.078Z,99509.55
2022-09-25T15:36:54.696Z,99507.19
2022-09-25T15:41:57.854Z,99504.44
2022-09-25T15:47:02.442Z,99503.13
2022-09-25T15:52:32.785Z,99493.92
2022-09-25T15:57:36.811Z,99490.98
2022-09-25T16:03:11.458Z,99491.73
2022-09-25T16:08:18.150Z,99484.69
2022-09-25T16:13:24.906Z,99485.34
2022-09-25T16:18:32.414Z,99479.71
2022-09-25T16:23:38.627Z,99475.08
2022-09-25T16:28:50.334Z,99470.67
2022-09-25T16:33:57.846Z,99469.42
2022-09-25T16:39:10.331Z,99468.88
2022-09-25T16:44:28.921Z,99465.32
2022-09-25T16:49:35.117Z,99462.27
2022-09-25T16:54:38.940Z,99454.56
2022-09-25T16:59:42.249Z,99451.27
2022-09-25T17:04:45.454Z,99452.92
2022-09-25T17:09:49.281Z,99450.98
2022-09-25T17:14:53.415Z,99446.14
2022-09-25T17:19:56.516Z,99447.13
2022-09-25T17:25:02.838Z,99444.27
2022-09-25T17:30:06.687Z,99441.64
2022-09-25T17:35:25.701Z,99434.81
2022-09-25T17:40:31.239Z,99431.35
2022-09-25T17:45:43.484Z,99432.10
2022-09-25T17:50:46.794Z,99424.40
2022-09-25T17:55:53.752Z,99414.48
2022-09-25T18:01:02.222Z,99416.84
2022-09-25T18:06:05.942Z,99419.20
2022-09-25T18:11:11.409Z,99413.96
2022-09-25T18:16:25.755Z,99411.68
2022-09-25T18:21:47.926Z,99412.84
2022-09-25T18:26:54.821Z,99408.36
2022-09-25T18:31:58.438Z,99402.52
2022-09-25T18:37:01.647Z,99404.77
2022-09-25T18:42:05.348Z,99397.61
2022-09-25T18:47:08.503Z,99399.88
2022-09-25T18:52:12.091Z,99404.77
2022-09-25T18:57:16.786Z,99396.77
2022-09-25T19:02:25.715Z,99392.83
2022-09-25T19:07:29.750Z,99392.33
2022-09-25T19:12:33.055Z,99392.89
2022-09-25T19:17:36.326Z,99393.12
2022-09-25T19:22:41.379Z,99391.19
2022-09-25T19:27:47.762Z,99389.31
2022-09-25T19:32:51.276Z,99383.27
2022-09-25T19:37:56.223Z,99382.45
2022-09-25T19:43:01.377Z,99374.39
2022-09-25T19:48:05.199Z,99371.17
2022-09-25T19:53:08.513Z,99369.92
2022-09-25T19:58:11.824Z,99369.46
2022-09-25T20:03:15.122Z,99367.25
2022-09-25T20:08:18.444Z,99367.95
2022-09-25T20:13:21.857Z,99365.08
2022-09-25T20:18:26.806Z,99360.92
2022-09-25T20:23:30.118Z,99358.80
2022-09-25T20:28:33.327Z,99349.60
2022-09-25T20:33:37.514Z,99353.77
2022-09-25T20:38:41.484Z,99351.75
2022-09-25T20:43:44.998Z,99346.86
2022-09-25T20:48:51.434Z,99349.52
2022-09-25T20:54:00.322Z,99342.33
2022-09-25T20:59:04.899Z,99337.14
2022-09-25T21:04:10.159Z,99336.89
2022-09-25T21:09:23.476Z,99329.82
2022-09-25T21:14:28.903Z,99329.61
2022-09-25T21:19:32.443Z,99325.23
2022-09-25T21:24:36.173Z,99324.13
2022-09-25T21:29:39.680Z,99321.50
2022-09-25T21:34:42.887Z,99314.34
2022-09-25T21:39:46.606Z,99309.77
2022-09-25T21:44:50.531Z,99305.23
2022-09-25T21:49:56.614Z,99301.77
2022-09-25T21:55:00.227Z,99297.45
2022-09-25T22:00:04.770Z,99289.91
2022-09-25T22:05:08.498Z,99281.52
2022-09-25T22:10:12.000Z,99280.20
2022-09-25T22:15:15.315Z,99276.83
2022-09-25T22:20:18.725Z,99278.06
2022-09-25T22:25:22.138Z,99275.50
2022-09-25T22:30:25.384Z,99272.10
2022-09-25T22:35:28.761Z,99271.35
2022-09-25T22:40:32.072Z,99264.31
2022-09-25T22:45:35.392Z,99261.81
2022-09-25T22:50:38.694Z,99257.48
2022-09-25T22:55:42.004Z,99251.02
2022-09-25T23:00:48.921Z,99249.13
2022-09-25T23:05:52.160Z,99247.52
2022-09-25T23:11:07.207Z,99244.94
2022-09-25T23:16:39.480Z,99235.36
2022-09-25T23:21:43.321Z,99225.23
2022-09-25T23:26:46.513Z,99217.35
2022-09-25T23:31:51.262Z,99211.27
2022-09-25T23:36:54.672Z,99203.54
2022-09-25T23:41:58.187Z,99196.83
2022-09-25T23:47:01.603Z,99191.77
2022-09-25T23:52:04.821Z,99186.55
2022-09-25T23:57:08.086Z,99185.70
